createdAt,value
2018-01-15T00:00:20.122Z,15.93
2018-01-15T00:02:46.677Z,15.00
2018-01-15T00:05:13.896Z,14.18
2018-01-15T00:07:40.411Z,13.50
2018-01-15T00:10:06.874Z,14.20
2018-01-15T00:12:33.524Z,13.50
2018-01-15T00:15:00.087Z,11.10
2018-01-15T00:17:26.641Z,11.35
2018-01-15T00:19:53.915Z,11.48
2018-01-15T00:22:21.293Z,11.50
2018-01-15T00:24:48.572Z,11.20
2018-01-15T00:27:15.125Z,11.30
2018-01-15T00:29:46.390Z,12.13
2018-01-15T00:32:12.953Z,12.10
2018-01-15T00:34:39.504Z,11.57
2018-01-15T00:37:06.001Z,11.40
2018-01-15T00:39:32.827Z,11.53
2018-01-15T00:41:59.385Z,11.43
2018-01-15T00:44:26.581Z,12.13
2018-01-15T00:46:53.043Z,11.88
2018-01-15T00:49:19.676Z,13.38
2018-01-15T00:51:46.234Z,13.05
2018-01-15T00:54:12.686Z,12.68
2018-01-15T00:56:40.132Z,13.18
2018-01-15T00:59:06.605Z,14.02
2018-01-15T01:01:33.841Z,13.52
2018-01-15T01:04:00.353Z,13.88
2018-01-15T01:06:26.825Z,14.07
2018-01-15T01:08:53.371Z,13.93
2018-01-15T01:11:20.328Z,13.10
2018-01-15T01:13:47.712Z,13.53
2018-01-15T01:16:14.270Z,13.10
2018-01-15T01:18:40.833Z,13.62
2018-01-15T01:21:07.331Z,13.38
2018-01-15T01:23:33.946Z,13.83
2018-01-15T01:26:00.503Z,13.62
2018-01-15T01:28:27.063Z,11.57
2018-01-15T01:30:53.555Z,11.57
2018-01-15T01:33:20.078Z,11.80
2018-01-15T01:35:46.735Z,12.15
2018-01-15T01:38:13.938Z,11.97
2018-01-15T01:40:40.406Z,13.50
2018-01-15T01:43:06.922Z,14.25
2018-01-15T01:45:33.486Z,13.70
2018-01-15T01:47:59.967Z,12.93
2018-01-15T01:50:26.496Z,13.00
2018-01-15T01:52:53.985Z,13.80
2018-01-15T01:55:20.534Z,14.73
2018-01-15T01:57:47.805Z,14.87
2018-01-15T02:00:15.059Z,15.10
2018-01-15T02:02:41.500Z,14.53
2018-01-15T02:05:07.961Z,14.30
2018-01-15T02:07:34.440Z,16.75
2018-01-15T02:10:01.723Z,16.23
2018-01-15T02:12:28.905Z,15.90
2018-01-15T02:14:55.369Z,16.10
2018-01-15T02:17:21.872Z,15.82
2018-01-15T02:19:48.343Z,16.85
2018-01-15T02:22:14.900Z,17.90
2018-01-15T02:24:42.040Z,17.52
2018-01-15T02:27:08.504Z,17.45
2018-01-15T02:29:34.973Z,16.98
2018-01-15T02:32:01.540Z,17.33
2018-01-15T02:34:28.128Z,17.25
2018-01-15T02:36:54.592Z,17.23
2018-01-15T02:39:21.139Z,18.27
2018-01-15T02:41:47.610Z,17.12
2018-01-15T02:44:14.706Z,17.52
2018-01-15T02:46:41.216Z,17.50
2018-01-15T02:49:08.391Z,17.30
2018-01-15T02:51:35.597Z,17.40
2018-01-15T02:54:02.128Z,16.67
2018-01-15T02:56:29.313Z,16.05
2018-01-15T02:58:55.857Z,16.30
2018-01-15T03:01:22.416Z,15.75
2018-01-15T03:03:49.075Z,14.55
2018-01-15T03:06:16.350Z,15.30
2018-01-15T03:08:43.014Z,15.45
2018-01-15T03:11:09.782Z,15.38
2018-01-15T03:13:36.435Z,15.70
2018-01-15T03:16:02.995Z,16.40
2018-01-15T03:18:29.491Z,15.90
2018-01-15T03:20:55.971Z,15.27
2018-01-15T03:23:22.565Z,16.00
2018-01-15T03:25:49.840Z,15.60
2018-01-15T03:28:16.328Z,16.70
2018-01-15T03:30:42.812Z,16.30
2018-01-15T03:33:09.413Z,16.50
2018-01-15T03:35:36.690Z,15.90
2018-01-15T03:38:03.173Z,15.93
2018-01-15T03:40:29.703Z,16.48
2018-01-15T03:42:56.361Z,17.20
2018-01-15T03:45:23.635Z,16.08
2018-01-15T03:47:50.067Z,15.93
2018-01-15T03:50:16.517Z,15.38
2018-01-15T03:52:42.990Z,16.00
2018-01-15T03:55:10.184Z,16.20
2018-01-15T03:57:36.604Z,16.75
2018-01-15T04:00:03.203Z,16.52
2018-01-15T04:02:29.673Z,16.48
2018-01-15T04:04:56.137Z,16.58
2018-01-15T04:07:22.593Z,15.50
2018-01-15T04:09:49.116Z,17.05
2018-01-15T04:12:16.385Z,16.62
2018-01-15T04:14:43.768Z,17.20
2018-01-15T04:17:10.220Z,16.20
2018-01-15T04:19:36.696Z,16.27
2018-01-15T04:22:03.239Z,16.37
2018-01-15T04:24:30.457Z,16.23
2018-01-15T04:26:56.968Z,16.83
2018-01-15T04:29:23.455Z,16.83
2018-01-15T04:31:53.461Z,16.27
2018-01-15T04:34:19.913Z,15.10
2018-01-15T04:36:47.291Z,16.35
2018-01-15T04:39:14.476Z,16.92
2018-01-15T04:41:41.468Z,16.37
2018-01-15T04:44:08.208Z,16.30
2018-01-15T04:46:34.839Z,16.77
2018-01-15T04:49:01.586Z,16.33
2018-01-15T04:51:28.323Z,16.60
2018-01-15T04:53:55.063Z,16.80
2018-01-15T04:56:21.700Z,18.30
2018-01-15T04:58:49.668Z,17.05
2018-01-15T05:01:16.306Z,16.67
2018-01-15T05:03:42.942Z,17.45
2018-01-15T05:06:10.212Z,16.70
2018-01-15T05:08:36.825Z,17.50
2018-01-15T05:11:03.467Z,16.33
2018-01-15T05:13:30.309Z,17.83
2018-01-15T05:15:57.561Z,17.30
2018-01-15T05:18:25.147Z,18.15
2018-01-15T05:20:51.857Z,17.45
2018-01-15T05:23:18.598Z,17.48
2018-01-15T05:25:45.234Z,18.00
2018-01-15T05:28:12.036Z,17.55
2018-01-15T05:30:38.530Z,17.00
2018-01-15T05:33:04.986Z,17.58
2018-01-15T05:35:31.488Z,19.73
2018-01-15T05:37:57.951Z,17.12
2018-01-15T05:40:25.275Z,18.83
2018-01-15T05:42:51.936Z,18.55
2018-01-15T05:45:19.128Z,18.70
2018-01-15T05:47:46.104Z,17.98
2018-01-15T05:50:12.637Z,19.25
2018-01-15T05:52:39.909Z,18.35
2018-01-15T05:55:07.183Z,20.90
2018-01-15T05:57:34.457Z,19.35
2018-01-15T06:00:01.015Z,20.42
2018-01-15T06:02:28.284Z,18.95
2018-01-15T06:04:55.564Z,19.20
2018-01-15T06:07:22.034Z,18.98
2018-01-15T06:09:48.618Z,18.48
2018-01-15T06:12:15.137Z,18.52
2018-01-15T06:14:41.694Z,19.10
2018-01-15T06:17:12.139Z,18.75
2018-01-15T06:19:38.613Z,18.98
2018-01-15T06:22:05.221Z,19.90
2018-01-15T06:24:31.820Z,19.33
2018-01-15T06:26:58.921Z,19.55
2018-01-15T06:29:25.444Z,20.35
2018-01-15T06:31:52.820Z,19.45
2018-01-15T06:34:19.378Z,19.42
2018-01-15T06:36:45.854Z,19.23
2018-01-15T06:39:12.379Z,18.47
2018-01-15T06:41:39.595Z,20.75
2018-01-15T06:44:06.233Z,17.75
2018-01-15T06:46:32.784Z,17.73
2018-01-15T06:48:59.992Z,18.40
2018-01-15T06:51:26.412Z,18.40
2018-01-15T06:53:52.921Z,18.77
2018-01-15T06:56:19.429Z,18.92
2018-01-15T06:58:45.893Z,17.40
2018-01-15T07:01:12.345Z,16.67
2018-01-15T07:03:38.952Z,18.23
2018-01-15T07:06:05.456Z,18.60
2018-01-15T07:08:31.912Z,17.97
2018-01-15T07:10:58.392Z,17.40
2018-01-15T07:13:24.853Z,17.92
2018-01-15T07:15:51.691Z,16.75
2018-01-15T07:18:18.321Z,16.33
2018-01-15T07:20:45.058Z,16.50
2018-01-15T07:23:11.696Z,16.70
2018-01-15T07:25:38.334Z,17.30
2018-01-15T07:28:05.074Z,17.25
2018-01-15T07:30:31.918Z,15.90
2018-01-15T07:32:58.859Z,15.75
2018-01-15T07:35:25.498Z,15.80
2018-01-15T07:37:52.635Z,16.02
2018-01-15T07:40:19.261Z,15.82
2018-01-15T07:42:46.002Z,16.23
2018-01-15T07:45:12.660Z,17.33
2018-01-15T07:47:39.484Z,16.33
2018-01-15T07:50:06.447Z,17.48
2018-01-15T07:52:33.286Z,16.50
2018-01-15T07:54:59.922Z,15.88
2018-01-15T07:57:26.561Z,15.02
2018-01-15T07:59:53.299Z,16.25
2018-01-15T08:02:20.763Z,15.20
2018-01-15T08:04:47.394Z,15.68
2018-01-15T08:07:14.030Z,15.30
2018-01-15T08:09:40.758Z,15.32
2018-01-15T08:12:07.612Z,15.25
2018-01-15T08:14:34.849Z,15.40
2018-01-15T08:17:01.604Z,15.02
2018-01-15T08:19:28.323Z,15.35
2018-01-15T08:21:55.183Z,16.05
2018-01-15T08:24:22.014Z,24.15
2018-01-15T08:26:48.766Z,20.67
2018-01-15T08:29:15.402Z,15.20
2018-01-15T08:31:42.038Z,15.60
2018-01-15T08:34:08.786Z,14.73
2018-01-15T08:36:35.621Z,14.80
2018-01-15T08:39:02.564Z,14.45
2018-01-15T08:41:29.203Z,14.40
2018-01-15T08:43:56.453Z,12.97
2018-01-15T08:46:23.275Z,13.00
2018-01-15T08:48:57.918Z,12.23
2018-01-15T08:51:24.556Z,13.02
2018-01-15T08:53:51.388Z,12.40
2018-01-15T08:56:22.054Z,11.50
2018-01-15T08:58:49.364Z,12.55
2018-01-15T09:01:15.939Z,11.80
2018-01-15T09:03:43.375Z,12.17
2018-01-15T09:06:10.159Z,10.13
2018-01-15T09:08:36.852Z,10.30
2018-01-15T09:11:03.898Z,12.10
2018-01-15T09:13:35.147Z,12.20
2018-01-15T09:16:01.768Z,11.75
2018-01-15T09:18:28.408Z,12.00
2018-01-15T09:20:55.154Z,10.73
2018-01-15T09:23:21.795Z,11.50
2018-01-15T09:25:48.435Z,13.60
2018-01-15T09:28:15.168Z,10.50
2018-01-15T09:30:41.705Z,11.48
2018-01-15T09:33:08.195Z,9.90
2018-01-15T09:35:35.493Z,11.10
2018-01-15T09:38:02.092Z,10.50
2018-01-15T09:40:28.561Z,9.90
2018-01-15T09:42:58.271Z,10.65
2018-01-15T09:45:24.907Z,10.20
2018-01-15T09:47:51.548Z,9.65
2018-01-15T09:50:18.077Z,10.77
2018-01-15T09:52:44.612Z,11.93
2018-01-15T09:55:11.153Z,12.07
2018-01-15T09:57:37.782Z,12.57
2018-01-15T10:00:05.447Z,13.20
2018-01-15T10:02:32.798Z,12.50
2018-01-15T10:04:59.300Z,13.50
2018-01-15T10:07:25.866Z,13.60
2018-01-15T10:09:52.917Z,13.80
2018-01-15T10:12:20.271Z,13.30
2018-01-15T10:14:46.977Z,14.80
2018-01-15T10:17:13.541Z,16.23
2018-01-15T10:19:40.163Z,14.82
2018-01-15T10:22:06.923Z,15.55
2018-01-15T10:24:34.366Z,14.80
2018-01-15T10:27:01.421Z,14.57
2018-01-15T10:29:28.060Z,14.48
2018-01-15T10:31:54.992Z,14.15
2018-01-15T10:34:21.632Z,14.48
2018-01-15T10:36:48.481Z,14.60
2018-01-15T10:39:15.119Z,13.98
2018-01-15T10:41:41.755Z,14.55
2018-01-15T10:44:09.113Z,15.65
2018-01-15T10:46:35.643Z,14.00
2018-01-15T10:49:02.280Z,14.35
2018-01-15T10:51:28.917Z,14.00
2018-01-15T10:53:55.558Z,14.27
2018-01-15T10:56:22.908Z,14.30
2018-01-15T10:58:49.545Z,14.60
2018-01-15T11:01:22.327Z,14.85
2018-01-15T11:03:48.963Z,14.20
2018-01-15T11:06:16.319Z,13.68
2018-01-15T11:08:46.279Z,13.30
2018-01-15T11:11:13.277Z,12.20
2018-01-15T11:13:39.914Z,12.30
2018-01-15T11:16:06.557Z,12.70
2018-01-15T11:18:33.099Z,13.45
2018-01-15T11:21:00.542Z,12.23
2018-01-15T11:23:27.932Z,12.00
2018-01-15T11:25:54.533Z,11.65
2018-01-15T11:28:22.915Z,11.15
2018-01-15T11:30:49.547Z,11.95
2018-01-15T11:33:16.183Z,12.90
2018-01-15T11:35:42.821Z,12.63
2018-01-15T11:38:09.457Z,11.10
2018-01-15T11:40:39.986Z,14.20
2018-01-15T11:43:06.624Z,12.48
2018-01-15T11:45:33.261Z,11.17
2018-01-15T11:47:59.898Z,13.80
2018-01-15T11:50:27.251Z,12.30
2018-01-15T11:52:53.889Z,13.25
2018-01-15T11:55:20.526Z,12.45
2018-01-15T11:57:47.162Z,11.88
2018-01-15T12:00:13.767Z,11.48
2018-01-15T12:02:40.242Z,12.35
2018-01-15T12:05:06.785Z,12.80
2018-01-15T12:07:33.258Z,14.75
2018-01-15T12:09:59.767Z,12.65
2018-01-15T12:12:26.235Z,12.60
2018-01-15T12:14:52.727Z,14.05
2018-01-15T12:17:19.200Z,12.25
2018-01-15T12:19:45.674Z,12.13
2018-01-15T12:22:12.134Z,12.82
2018-01-15T12:24:38.594Z,12.07
2018-01-15T12:27:06.107Z,11.95
2018-01-15T12:29:32.539Z,12.88
2018-01-15T12:31:59.086Z,12.02
2018-01-15T12:34:25.637Z,12.40
2018-01-15T12:36:52.204Z,12.83
2018-01-15T12:39:19.493Z,13.55
2018-01-15T12:41:45.944Z,11.73
2018-01-15T12:44:12.527Z,12.55
2018-01-15T12:46:39.147Z,12.23
2018-01-15T12:49:05.703Z,12.40
2018-01-15T12:51:32.265Z,12.55
2018-01-15T12:53:58.752Z,12.23
2018-01-15T12:56:28.327Z,12.60
2018-01-15T12:58:55.545Z,12.37
2018-01-15T13:01:22.058Z,12.50
2018-01-15T13:03:48.633Z,13.05
2018-01-15T13:06:18.899Z,12.20
2018-01-15T13:08:48.442Z,13.30
2018-01-15T13:11:15.569Z,12.80
2018-01-15T13:13:42.757Z,13.07
2018-01-15T13:16:09.301Z,12.63
2018-01-15T13:18:35.756Z,13.62
2018-01-15T13:21:02.938Z,12.93
2018-01-15T13:23:29.406Z,13.40
2018-01-15T13:25:56.974Z,13.23
2018-01-15T13:28:23.527Z,12.50
2018-01-15T13:30:50.084Z,13.50
2018-01-15T13:33:16.583Z,14.05
2018-01-15T13:35:43.097Z,13.30
2018-01-15T13:38:09.655Z,13.90
2018-01-15T13:40:36.930Z,13.70
2018-01-15T13:43:04.204Z,13.70
2018-01-15T13:45:31.480Z,13.70
2018-01-15T13:47:57.991Z,12.97
2018-01-15T13:50:24.497Z,13.27
2018-01-15T13:52:50.991Z,13.02
2018-01-15T13:55:17.507Z,13.62
2018-01-15T13:57:44.681Z,14.30
2018-01-15T14:00:11.224Z,12.77
2018-01-15T14:02:38.119Z,13.20
2018-01-15T14:05:04.568Z,13.18
2018-01-15T14:07:31.080Z,13.80
2018-01-15T14:09:57.524Z,13.60
2018-01-15T14:12:24.093Z,12.77
2018-01-15T14:14:50.583Z,14.02
2018-01-15T14:17:17.765Z,13.52
2018-01-15T14:19:44.221Z,13.60
2018-01-15T14:22:10.726Z,12.03
2018-01-15T14:24:37.188Z,13.20
2018-01-15T14:27:03.633Z,12.80
2018-01-15T14:29:30.100Z,13.75
2018-01-15T14:31:58.585Z,13.35
2018-01-15T14:36:00.441Z,13.87
2018-01-15T14:38:26.901Z,13.55
2018-01-15T14:40:53.382Z,13.30
2018-01-15T14:43:20.041Z,13.40
2018-01-15T14:45:47.526Z,13.00
2018-01-15T14:48:13.974Z,13.73
2018-01-15T14:50:40.435Z,13.57
2018-01-15T14:53:06.890Z,14.25
2018-01-15T14:55:33.360Z,14.30
2018-01-15T14:57:59.855Z,13.52
2018-01-15T15:00:26.353Z,13.20
2018-01-15T15:02:52.829Z,12.60
2018-01-15T15:05:25.126Z,13.10
2018-01-15T15:07:51.594Z,13.53
2018-01-15T15:10:18.104Z,13.13
2018-01-15T15:12:44.664Z,13.10
2018-01-15T15:15:11.849Z,12.90
2018-01-15T15:17:38.369Z,13.60
2018-01-15T15:20:04.899Z,14.70
2018-01-15T15:22:32.155Z,13.60
2018-01-15T15:24:59.815Z,14.05
2018-01-15T15:27:26.301Z,13.95
2018-01-15T15:29:52.827Z,17.00
2018-01-15T15:32:19.336Z,14.68
2018-01-15T15:34:46.608Z,18.98
2018-01-15T15:37:13.853Z,14.60
2018-01-15T15:39:41.540Z,17.50
2018-01-15T15:42:11.355Z,17.43
2018-01-15T15:44:37.846Z,16.42
2018-01-15T15:47:04.362Z,16.10
2018-01-15T15:49:30.851Z,18.48
2018-01-15T15:51:57.364Z,20.88
2018-01-15T15:54:23.884Z,18.73
2018-01-15T15:56:51.162Z,16.37
2018-01-15T15:59:17.656Z,15.90
2018-01-15T16:01:44.177Z,16.90
2018-01-15T16:04:11.387Z,18.98
2018-01-15T16:06:37.841Z,18.85
2018-01-15T16:09:04.465Z,16.20
2018-01-15T16:11:31.740Z,16.65
2018-01-15T16:13:58.190Z,18.50
2018-01-15T16:16:25.374Z,17.80
2018-01-15T16:18:51.909Z,18.77
2018-01-15T16:21:18.386Z,16.48
2018-01-15T16:23:44.942Z,17.23
2018-01-15T16:26:11.499Z,16.60
2018-01-15T16:28:38.877Z,16.67
2018-01-15T16:31:05.435Z,15.88
2018-01-15T16:33:38.265Z,16.43
2018-01-15T16:38:57.846Z,19.95
2018-01-15T16:41:24.397Z,16.77
2018-01-15T16:43:50.954Z,17.15
2018-01-15T16:46:18.231Z,17.23
2018-01-15T16:48:44.766Z,20.52
2018-01-15T16:51:12.063Z,23.62
2018-01-15T16:53:38.722Z,21.62
2018-01-15T16:56:05.197Z,18.23
2018-01-15T16:58:31.839Z,21.45
2018-01-15T17:00:59.119Z,17.23
2018-01-15T17:03:25.675Z,17.70
2018-01-15T17:05:52.880Z,17.58
2018-01-15T17:08:19.400Z,17.10
2018-01-15T17:10:46.627Z,17.40
2018-01-15T17:13:13.236Z,18.23
2018-01-15T17:15:39.791Z,17.37
2018-01-15T17:18:07.065Z,17.75
2018-01-15T17:20:33.625Z,17.62
2018-01-15T17:23:00.100Z,17.45
2018-01-15T17:25:26.742Z,17.67
2018-01-15T17:27:53.300Z,17.25
2018-01-15T17:30:20.956Z,16.90
2018-01-15T17:32:47.439Z,17.60
2018-01-15T17:35:13.944Z,17.50
2018-01-15T17:37:40.401Z,17.90
2018-01-15T17:40:06.909Z,18.17
2018-01-15T17:42:34.184Z,17.77
2018-01-15T17:45:03.988Z,17.23
2018-01-15T17:47:30.420Z,18.63
2018-01-15T17:49:56.996Z,17.70
2018-01-15T17:52:23.690Z,17.35
2018-01-15T17:54:57.514Z,18.10
2018-01-15T17:57:24.066Z,17.52
2018-01-15T17:59:51.341Z,17.50
2018-01-15T18:02:17.825Z,18.77
2018-01-15T18:04:44.356Z,18.60
2018-01-15T18:07:10.818Z,19.45
2018-01-15T18:09:40.568Z,22.35
2018-01-15T18:12:07.204Z,25.42
2018-01-15T18:14:33.761Z,25.90
2018-01-15T18:17:01.035Z,28.15
2018-01-15T18:19:27.569Z,53.80
2018-01-15T18:21:54.011Z,55.75
2018-01-15T18:24:20.491Z,46.42
2018-01-15T18:26:47.884Z,36.10
2018-01-15T18:29:14.442Z,48.40
2018-01-15T18:31:40.902Z,32.15
2018-01-15T18:34:07.556Z,35.40
2018-01-15T18:36:34.831Z,38.65
2018-01-15T18:39:01.389Z,31.25
2018-01-15T18:41:27.882Z,29.30
2018-01-15T18:43:54.505Z,29.33
2018-01-15T18:46:21.043Z,31.58
2018-01-15T18:48:47.544Z,30.05
2018-01-15T18:51:14.072Z,25.83
2018-01-15T18:53:40.534Z,26.70
2018-01-15T18:56:12.148Z,21.00
2018-01-15T18:58:38.764Z,20.07
2018-01-15T19:01:05.324Z,19.52
2018-01-15T19:03:32.702Z,19.58
2018-01-15T19:05:59.363Z,19.58
2018-01-15T19:08:25.923Z,19.83
2018-01-15T19:10:52.482Z,19.50
2018-01-15T19:13:22.069Z,19.40
2018-01-15T19:15:49.444Z,18.08
2018-01-15T19:18:16.754Z,18.00
2018-01-15T19:20:43.518Z,18.42
2018-01-15T19:23:10.329Z,17.10
2018-01-15T19:25:37.387Z,16.92
2018-01-15T19:28:04.011Z,17.10
2018-01-15T19:30:30.707Z,17.95
2018-01-15T19:32:57.335Z,17.77
2018-01-15T19:35:32.072Z,17.40
2018-01-15T19:37:58.920Z,16.95
2018-01-15T19:40:26.314Z,17.10
2018-01-15T19:42:52.975Z,18.33
2018-01-15T19:45:25.465Z,17.35
2018-01-15T19:47:58.857Z,17.20
2018-01-15T19:50:31.674Z,17.60
2018-01-15T19:53:04.098Z,17.50
2018-01-15T19:55:36.659Z,17.00
2018-01-15T19:58:10.075Z,16.55
2018-01-15T20:00:42.410Z,17.75
2018-01-15T20:03:19.538Z,16.65
2018-01-15T20:06:04.974Z,16.30
2018-01-15T20:08:37.505Z,16.30
2018-01-15T20:11:04.029Z,15.98
2018-01-15T20:13:31.412Z,16.70
2018-01-15T20:15:58.875Z,16.67
2018-01-15T20:18:25.368Z,16.93
2018-01-15T20:20:51.886Z,15.95
2018-01-15T20:23:19.219Z,16.50
2018-01-15T20:25:46.249Z,16.00
2018-01-15T20:28:13.561Z,15.43
2018-01-15T20:30:48.203Z,16.62
2018-01-15T20:33:14.945Z,15.88
2018-01-15T20:35:41.622Z,17.30
2018-01-15T20:38:08.284Z,17.10
2018-01-15T20:40:34.905Z,16.52
2018-01-15T20:43:01.402Z,16.55
2018-01-15T20:45:28.266Z,17.40
2018-01-15T20:47:54.817Z,17.50
2018-01-15T20:50:22.381Z,18.73
2018-01-15T20:52:48.841Z,18.15
2018-01-15T20:55:15.318Z,18.50
2018-01-15T20:57:42.182Z,18.43
2018-01-15T21:00:08.739Z,18.27
2018-01-15T21:02:35.931Z,19.00
2018-01-15T21:05:02.819Z,18.67
2018-01-15T21:07:29.436Z,19.42
2018-01-15T21:09:56.361Z,19.10
2018-01-15T21:12:23.045Z,19.30
2018-01-15T21:14:49.623Z,19.23
2018-01-15T21:17:20.357Z,19.90
2018-01-15T21:19:47.650Z,19.37
2018-01-15T21:22:14.255Z,19.20
2018-01-15T21:24:41.792Z,18.85
2018-01-15T21:27:08.450Z,17.02
2018-01-15T21:29:34.938Z,16.58
2018-01-15T21:32:01.403Z,15.90
2018-01-15T21:34:27.891Z,16.13
2018-01-15T21:37:02.235Z,16.02
2018-01-15T21:39:29.420Z,15.70
2018-01-15T21:41:55.911Z,15.10
2018-01-15T21:44:23.325Z,15.30
2018-01-15T21:46:50.536Z,15.70
2018-01-15T21:49:17.088Z,16.20
2018-01-15T21:51:43.607Z,15.65
2018-01-15T21:54:10.215Z,15.02
2018-01-15T21:56:36.763Z,15.50
2018-01-15T21:59:09.499Z,15.10
2018-01-15T22:01:35.991Z,14.50
2018-01-15T22:04:02.560Z,15.00
2018-01-15T22:06:30.109Z,35.65
2018-01-15T22:08:56.680Z,27.92
2018-01-15T22:11:23.826Z,18.55
2018-01-15T22:13:50.733Z,27.47
2018-01-15T22:16:17.311Z,20.92
2018-01-15T22:18:44.829Z,25.42
2018-01-15T22:21:11.513Z,19.50
2018-01-15T22:23:37.938Z,14.68
2018-01-15T22:26:04.456Z,15.70
2018-01-15T22:28:34.294Z,14.38
2018-01-15T22:31:01.670Z,14.00
2018-01-15T22:33:29.054Z,16.02
2018-01-15T22:35:55.810Z,12.40
2018-01-15T22:38:25.105Z,12.73
2018-01-15T22:40:51.593Z,12.77
2018-01-15T22:43:18.083Z,11.80
2018-01-15T22:45:44.945Z,12.70
2018-01-15T22:48:11.436Z,13.00
2018-01-15T22:50:38.684Z,12.75
2018-01-15T22:53:05.154Z,12.93
2018-01-15T22:55:31.578Z,12.80
2018-01-15T22:57:58.211Z,14.13
2018-01-15T23:00:25.439Z,14.07
2018-01-15T23:02:52.657Z,13.62
2018-01-15T23:05:19.463Z,14.32
2018-01-15T23:07:45.995Z,14.10
2018-01-15T23:10:12.640Z,14.33
2018-01-15T23:12:39.314Z,14.75
2018-01-15T23:15:08.006Z,14.65
2018-01-15T23:17:34.668Z,14.05
2018-01-15T23:20:01.329Z,14.13
2018-01-15T23:22:30.649Z,13.65
2018-01-15T23:24:57.207Z,12.07
2018-01-15T23:27:23.765Z,12.82
2018-01-15T23:29:50.816Z,12.25
2018-01-15T23:32:31.302Z,12.00
2018-01-15T23:34:57.804Z,11.50
2018-01-15T23:37:24.320Z,11.43
2018-01-15T23:39:50.789Z,10.95
2018-01-15T23:42:17.261Z,11.10
2018-01-15T23:44:43.759Z,11.77
2018-01-15T23:47:10.243Z,12.00
2018-01-15T23:49:44.277Z,12.60
2018-01-15T23:52:10.831Z,12.20
2018-01-15T23:54:38.099Z,11.68
2018-01-15T23:57:08.240Z,11.85
2018-01-15T23:59:34.796Z,11.48
